Time;durP1;ratioP1;P1;durP2;ratioP2;P2;SDS_P1;SDS_P2;PMS_P1;PMS_P2;Temp;Humidity;BMP_temperature;BMP_pressure;BME280_temperature;BME280_humidity;BME280_pressure;Samples;Min_cycle;Max_cycle;Signal;HPM_P1;HPM_P2
2022/05/05 00:01:43;;;;;;;8.90;4.63;;;12.40;99.90;;;;;;5072796;28;20469;-70
2022/05/05 00:04:09;;;;;;;9.67;4.73;;;12.40;99.90;;;;;;5072877;28;20412;-71
2022/05/05 00:06:35;;;;;;;5.20;4.43;;;12.40;99.90;;;;;;5073255;28;21010;-72
2022/05/05 00:09:02;;;;;;;7.93;5.23;;;12.40;99.90;;;;;;5074642;28;20416;-72
2022/05/05 00:14:24;;;;;;;9.20;4.90;;;12.50;99.90;;;;;;5072055;28;20399;-70
2022/05/05 00:16:58;;;;;;;8.03;4.50;;;12.50;99.90;;;;;;5073231;28;20442;-71
2022/05/05 00:19:25;;;;;;;5.47;4.40;;;12.50;99.90;;;;;;5073334;28;20415;-71
2022/05/05 00:21:51;;;;;;;7.90;4.43;;;12.60;99.90;;;;;;5074949;28;20408;-71
2022/05/05 00:24:17;;;;;;;6.30;4.87;;;12.60;99.90;;;;;;5074656;28;20455;-71
2022/05/05 00:26:43;;;;;;;6.23;4.43;;;12.50;99.90;;;;;;5075749;28;20963;-71
2022/05/05 00:29:09;;;;;;;4.90;4.40;;;12.40;99.90;;;;;;5075696;28;20177;-70
2022/05/05 00:31:34;;;;;;;8.57;5.00;;;12.50;99.90;;;;;;5076410;28;20407;-71
2022/05/05 00:34:00;;;;;;;8.00;5.13;;;12.40;99.90;;;;;;5075849;28;20174;-71
2022/05/05 00:36:25;;;;;;;5.40;4.90;;;12.50;99.90;;;;;;5075644;28;20193;-71
2022/05/05 00:38:51;;;;;;;8.53;5.97;;;12.50;99.90;;;;;;5080640;28;20669;-71
2022/05/05 00:41:16;;;;;;;7.57;5.50;;;12.40;99.90;;;;;;5085718;28;20646;-71
2022/05/05 00:43:42;;;;;;;11.20;5.17;;;12.40;99.90;;;;;;5088446;28;20208;-71
2022/05/05 00:46:08;;;;;;;9.93;5.30;;;12.40;99.90;;;;;;5087284;28;20193;-72
2022/05/05 00:48:33;;;;;;;6.77;5.57;;;12.40;99.90;;;;;;5084472;28;20205;-71
2022/05/05 00:50:59;;;;;;;6.90;5.67;;;12.40;99.90;;;;;;5082920;28;20174;-70
2022/05/05 00:53:25;;;;;;;7.47;4.77;;;12.40;99.90;;;;;;5078592;28;20290;-72
2022/05/05 00:55:55;;;;;;;7.93;5.10;;;12.40;99.90;;;;;;5074190;28;20201;-72
2022/05/05 00:58:22;;;;;;;6.67;5.23;;;12.40;99.90;;;;;;5072876;28;20452;-72
2022/05/05 01:00:48;;;;;;;8.13;5.33;;;12.50;99.90;;;;;;5073726;28;20426;-71
2022/05/05 01:03:15;;;;;;;9.00;5.50;;;12.50;99.90;;;;;;5074078;28;20400;-72
2022/05/05 01:05:41;;;;;;;7.67;5.33;;;12.50;99.90;;;;;;5074025;28;20251;-72
2022/05/05 01:08:06;;;;;;;6.60;4.80;;;12.50;99.90;;;;;;5073931;28;20416;-71
2022/05/05 01:10:32;;;;;;;5.00;3.80;;;12.50;99.90;;;;;;5073594;28;20177;-72
2022/05/05 01:12:59;;;;;;;6.73;5.43;;;12.50;99.90;;;;;;5073720;28;20181;-71
2022/05/05 01:15:24;;;;;;;7.70;4.80;;;12.50;99.90;;;;;;5073670;28;20634;-72
2022/05/05 01:17:50;;;;;;;5.03;4.53;;;12.50;99.90;;;;;;5073742;28;20454;-71
2022/05/05 01:20:20;;;;;;;9.70;4.77;;;12.50;99.90;;;;;;5073595;28;20177;-71
2022/05/05 01:22:46;;;;;;;6.43;4.50;;;12.50;99.90;;;;;;5073461;28;20181;-71
2022/05/05 01:28:14;;;;;;;6.10;4.47;;;12.50;99.90;;;;;;5072827;28;20407;-72
2022/05/05 01:30:45;;;;;;;7.70;4.70;;;12.50;99.90;;;;;;5073119;28;20884;-71
2022/05/05 01:33:24;;;;;;;9.80;5.90;;;12.60;99.90;;;;;;5073250;28;20423;-70
2022/05/05 01:35:52;;;;;;;7.33;5.33;;;12.50;99.90;;;;;;5073179;28;20475;-71
2022/05/05 01:38:19;;;;;;;5.87;5.03;;;12.50;99.90;;;;;;5072490;28;20478;-72
2022/05/05 01:40:48;;;;;;;8.23;5.93;;;12.50;99.90;;;;;;5072772;28;20780;-71
2022/05/05 01:43:19;;;;;;;6.13;5.10;;;12.60;99.90;;;;;;5073034;28;20438;-71
2022/05/05 01:45:45;;;;;;;7.60;5.50;;;12.60;99.90;;;;;;5073019;28;20503;-71
2022/05/05 01:48:12;;;;;;;9.47;5.67;;;12.60;99.90;;;;;;5072967;28;20416;-70
2022/05/05 01:50:38;;;;;;;7.23;5.30;;;12.70;99.90;;;;;;5072490;28;20481;-71
2022/05/05 01:53:04;;;;;;;6.67;4.90;;;12.60;99.90;;;;;;5072721;28;20419;-71
2022/05/05 01:55:31;;;;;;;8.27;5.97;;;12.60;99.90;;;;;;5072669;28;20412;-71
2022/05/05 01:57:57;;;;;;;6.13;4.90;;;12.50;99.90;;;;;;5072843;28;20463;-72
2022/05/05 02:00:23;;;;;;;7.23;5.30;;;12.50;99.90;;;;;;5072444;28;20458;-71
2022/05/05 02:02:49;;;;;;;6.07;5.07;;;12.50;99.90;;;;;;5072910;28;20416;-71
2022/05/05 02:05:16;;;;;;;6.63;4.60;;;12.60;99.90;;;;;;5072953;28;20881;-71
2022/05/05 02:07:43;;;;;;;6.73;4.83;;;12.60;99.90;;;;;;5071202;28;20523;-71
2022/05/05 02:10:10;;;;;;;7.23;5.03;;;12.60;99.90;;;;;;5072346;28;20469;-71
2022/05/05 02:12:36;;;;;;;7.40;5.23;;;12.60;99.90;;;;;;5072473;28;20412;-71
2022/05/05 02:15:06;;;;;;;8.37;5.70;;;12.60;99.90;;;;;;5072418;28;20418;-71
2022/05/05 02:17:32;;;;;;;7.63;5.67;;;12.70;99.90;;;;;;5072226;28;20225;-70
2022/05/05 02:20:00;;;;;;;9.07;5.50;;;12.70;99.90;;;;;;5072075;28;20419;-70
2022/05/05 02:22:26;;;;;;;7.57;4.93;;;12.80;99.90;;;;;;5072373;28;20399;-70
2022/05/05 02:24:52;;;;;;;7.63;5.97;;;12.80;99.90;;;;;;5072359;28;20465;-71
2022/05/05 02:27:18;;;;;;;9.60;5.90;;;12.80;99.90;;;;;;5072065;28;20436;-71
2022/05/05 02:29:44;;;;;;;7.37;5.90;;;12.80;99.90;;;;;;5071878;28;20235;-71
2022/05/05 02:32:09;;;;;;;9.00;6.03;;;12.70;99.90;;;;;;5072041;28;20407;-71
2022/05/05 02:34:35;;;;;;;8.57;6.23;;;12.60;99.90;;;;;;5072146;28;20541;-71
2022/05/05 02:39:45;;;;;;;10.30;6.00;;;12.60;99.90;;;;;;5071757;28;20233;-71
2022/05/05 02:42:10;;;;;;;6.73;5.70;;;12.70;99.90;;;;;;5071848;28;20503;-71
2022/05/05 02:44:36;;;;;;;8.30;5.83;;;12.70;99.90;;;;;;5072059;28;20174;-71
2022/05/05 02:47:01;;;;;;;10.60;6.40;;;12.70;99.90;;;;;;5071816;28;20200;-71
2022/05/05 02:49:30;;;;;;;8.80;5.53;;;12.70;99.90;;;;;;5071707;28;20230;-71
2022/05/05 02:51:55;;;;;;;8.03;5.03;;;12.70;99.90;;;;;;5072071;28;20667;-71
2022/05/05 02:57:05;;;;;;;6.40;5.20;;;12.70;99.90;;;;;;5072084;28;20208;-70
2022/05/05 02:59:31;;;;;;;7.23;6.07;;;12.70;99.80;;;;;;5071650;28;20771;-70
2022/05/05 03:01:57;;;;;;;7.80;5.83;;;12.80;99.70;;;;;;5071883;28;20400;-71
2022/05/05 03:04:23;;;;;;;7.10;4.93;;;12.80;99.60;;;;;;5071273;28;20157;-71
2022/05/05 03:06:48;;;;;;;7.83;5.40;;;12.80;99.60;;;;;;5071805;28;20457;-71
2022/05/05 03:09:14;;;;;;;8.93;6.20;;;12.70;99.60;;;;;;5071360;28;20173;-71
2022/05/05 03:11:39;;;;;;;7.13;5.60;;;12.70;99.60;;;;;;5071741;28;20643;-71
2022/05/05 03:14:05;;;;;;;7.40;5.90;;;12.80;99.80;;;;;;5072072;28;20169;-71
2022/05/05 03:16:30;;;;;;;9.07;5.97;;;12.70;99.90;;;;;;5098419;22;20221;-71
2022/05/05 03:18:56;;;;;;;10.07;5.80;;;12.70;99.90;;;;;;5091878;28;20293;-70
2022/05/05 03:21:21;;;;;;;7.43;6.03;;;12.70;99.90;;;;;;5091377;28;20517;-70
2022/05/05 03:23:47;;;;;;;6.87;5.60;;;12.70;99.90;;;;;;5092204;28;20173;-69
2022/05/05 03:26:13;;;;;;;7.50;6.10;;;12.60;99.90;;;;;;5091508;28;20665;-69
2022/05/05 03:28:38;;;;;;;10.20;6.83;;;12.40;99.90;;;;;;5090700;28;20544;-69
2022/05/05 03:31:06;;;;;;;10.10;7.00;;;12.30;99.90;;;;;;5090131;28;20496;-70
2022/05/05 03:33:32;;;;;;;8.33;6.43;;;12.20;99.90;;;;;;5092178;28;20180;-70
2022/05/05 03:35:57;;;;;;;7.10;5.50;;;12.30;99.90;;;;;;5091925;28;20488;-69
2022/05/05 03:38:23;;;;;;;7.50;6.30;;;12.40;99.90;;;;;;5091842;28;20451;-69
2022/05/05 03:40:50;;;;;;;7.90;5.93;;;12.40;99.90;;;;;;5089852;28;20180;-70
2022/05/05 03:43:16;;;;;;;8.53;5.60;;;12.40;99.90;;;;;;5092165;28;20407;-70
2022/05/05 03:45:41;;;;;;;8.70;6.50;;;12.50;99.90;;;;;;5091868;28;20819;-69
2022/05/05 03:48:08;;;;;;;6.83;5.40;;;12.50;99.90;;;;;;5091714;28;20184;-69
2022/05/05 03:50:33;;;;;;;10.00;6.70;;;12.60;99.90;;;;;;5091728;28;20172;-70
2022/05/05 03:52:59;;;;;;;11.43;6.30;;;12.60;99.90;;;;;;5095643;28;20414;-69
2022/05/05 03:55:25;;;;;;;7.80;5.73;;;12.60;99.90;;;;;;5094244;28;20614;-70
2022/05/05 03:57:50;;;;;;;8.60;6.53;;;12.60;99.90;;;;;;5095512;28;20469;-70
2022/05/05 04:00:18;;;;;;;9.87;6.07;;;12.60;99.90;;;;;;5095069;28;20222;-69
2022/05/05 04:02:43;;;;;;;9.60;6.17;;;12.60;99.90;;;;;;5096069;28;20160;-69
2022/05/05 04:05:09;;;;;;;6.53;5.73;;;12.60;99.90;;;;;;5097433;28;20493;-69
2022/05/05 04:07:35;;;;;;;7.40;5.50;;;12.50;99.90;;;;;;5095521;28;20200;-69
2022/05/05 04:10:00;;;;;;;8.70;6.47;;;12.60;99.90;;;;;;5094220;28;20422;-69
2022/05/05 04:12:26;;;;;;;6.20;5.63;;;12.50;99.90;;;;;;5095889;28;20168;-67
2022/05/05 04:14:51;;;;;;;11.37;6.00;;;12.50;99.90;;;;;;5097407;28;20173;-69
2022/05/05 04:17:17;;;;;;;10.40;5.37;;;12.60;99.90;;;;;;5096143;28;20288;-70
2022/05/05 04:19:43;;;;;;;9.43;5.77;;;12.60;99.90;;;;;;5096472;28;20168;-70
2022/05/05 04:22:08;;;;;;;7.03;5.70;;;12.60;99.90;;;;;;5097293;28;20165;-69
2022/05/05 04:24:34;;;;;;;9.47;5.97;;;12.60;99.90;;;;;;5104999;28;20256;-70
2022/05/05 04:27:01;;;;;;;8.17;5.33;;;12.60;99.90;;;;;;5095617;28;20201;-70
2022/05/05 04:29:26;;;;;;;8.50;6.27;;;12.60;99.90;;;;;;5097728;28;20173;-68
2022/05/05 04:31:53;;;;;;;10.23;6.57;;;12.70;99.90;;;;;;5104425;28;20491;-70
2022/05/05 04:34:18;;;;;;;8.73;6.43;;;12.70;99.90;;;;;;5102645;28;20157;-70
2022/05/05 04:36:44;;;;;;;7.20;5.73;;;12.70;99.90;;;;;;5101088;28;20486;-69
2022/05/05 04:39:09;;;;;;;9.50;6.50;;;12.80;99.90;;;;;;5106864;28;20181;-67
2022/05/05 04:41:35;;;;;;;7.30;6.00;;;12.80;99.90;;;;;;5110719;28;20165;-69
2022/05/05 04:44:00;;;;;;;8.27;6.63;;;12.80;99.90;;;;;;5091237;28;20231;-70
2022/05/05 04:46:26;;;;;;;9.30;5.87;;;12.80;99.90;;;;;;5080226;28;20243;-69
2022/05/05 04:48:53;;;;;;;9.20;6.53;;;12.80;99.90;;;;;;5083205;28;20201;-70
2022/05/05 04:51:18;;;;;;;8.53;6.00;;;12.80;99.90;;;;;;5082668;28;20173;-70
2022/05/05 04:53:44;;;;;;;10.60;7.13;;;12.90;99.90;;;;;;5078430;28;20431;-69
2022/05/05 04:56:10;;;;;;;12.37;6.77;;;12.80;99.90;;;;;;5075104;28;20190;-71
2022/05/05 04:58:36;;;;;;;11.73;7.40;;;12.80;99.90;;;;;;5073114;28;20201;-72
2022/05/05 05:01:03;;;;;;;9.53;7.00;;;12.80;99.90;;;;;;5078684;28;20576;-72
2022/05/05 05:03:39;;;;;;;11.27;7.40;;;12.90;99.90;;;;;;5082548;28;20415;-72
2022/05/05 05:06:07;;;;;;;11.97;7.80;;;12.90;99.90;;;;;;5083510;28;20990;-71
2022/05/05 05:08:36;;;;;;;12.17;8.57;;;13.00;99.90;;;;;;5086221;28;20483;-71
2022/05/05 05:11:02;;;;;;;7.30;6.53;;;13.00;99.90;;;;;;5078729;28;20486;-72
2022/05/05 05:13:28;;;;;;;9.80;6.83;;;13.10;99.90;;;;;;5086182;28;20440;-73
2022/05/05 05:15:53;;;;;;;12.90;7.50;;;13.10;99.90;;;;;;5084758;28;20978;-71
2022/05/05 05:18:19;;;;;;;11.13;6.80;;;13.20;99.90;;;;;;5083191;28;20266;-71
2022/05/05 05:20:45;;;;;;;10.07;7.63;;;13.20;99.90;;;;;;5078295;28;20214;-73
2022/05/05 05:23:11;;;;;;;14.07;8.17;;;13.20;99.90;;;;;;5083485;28;20227;-71
2022/05/05 05:25:36;;;;;;;9.90;7.50;;;13.30;99.90;;;;;;5085824;28;20528;-72
2022/05/05 05:28:02;;;;;;;9.47;7.70;;;13.30;99.90;;;;;;5093484;28;20231;-70
2022/05/05 05:30:28;;;;;;;6.83;6.13;;;13.40;99.90;;;;;;5092392;28;20296;-71
2022/05/05 05:32:53;;;;;;;7.10;6.40;;;13.40;99.90;;;;;;5093060;28;20238;-71
2022/05/05 05:35:19;;;;;;;11.97;6.73;;;13.50;99.90;;;;;;5092553;28;20616;-72
2022/05/05 05:37:44;;;;;;;9.50;6.93;;;13.50;99.90;;;;;;5092178;28;20567;-72
2022/05/05 05:40:10;;;;;;;9.77;8.50;;;13.60;99.90;;;;;;5092403;28;20201;-75
2022/05/05 05:42:36;;;;;;;11.97;9.90;;;13.60;99.90;;;;;;5092406;28;20280;-70
2022/05/05 05:45:01;;;;;;;11.43;8.50;;;13.40;99.90;;;;;;5091128;28;20211;-70
2022/05/05 05:47:27;;;;;;;11.23;7.50;;;13.50;99.90;;;;;;5092403;28;20193;-72
2022/05/05 05:49:53;;;;;;;12.70;7.40;;;13.40;99.90;;;;;;5091197;28;20596;-69
2022/05/05 05:52:18;;;;;;;12.63;7.97;;;13.30;99.90;;;;;;5092605;28;20192;-71
2022/05/05 05:54:43;;;;;;;9.00;6.90;;;13.20;99.90;;;;;;5085728;28;20315;-71
2022/05/05 05:57:09;;;;;;;15.30;7.60;;;13.20;99.90;;;;;;5071356;28;20295;-71
2022/05/05 05:59:34;;;;;;;10.47;7.07;;;13.20;99.90;;;;;;5070208;28;20288;-71
2022/05/05 06:04:44;;;;;;;9.90;7.33;;;13.40;99.90;;;;;;5071656;28;20251;-71
2022/05/05 06:07:10;;;;;;;14.73;8.50;;;13.50;99.90;;;;;;5069540;28;20452;-72
2022/05/05 06:09:35;;;;;;;13.30;7.07;;;13.60;99.90;;;;;;5070284;28;20723;-70
2022/05/05 06:12:03;;;;;;;7.93;6.23;;;13.70;99.90;;;;;;5071499;28;20209;-69
2022/05/05 06:14:29;;;;;;;10.50;7.27;;;13.80;99.60;;;;;;5071302;28;20563;-70
2022/05/05 06:16:54;;;;;;;13.03;7.60;;;13.90;99.40;;;;;;5071512;28;20460;-71
2022/05/05 06:19:20;;;;;;;10.50;7.13;;;14.00;99.10;;;;;;5071386;28;20193;-70
2022/05/05 06:21:46;;;;;;;9.87;7.10;;;14.10;98.80;;;;;;5071874;28;20205;-70
2022/05/05 06:24:11;;;;;;;12.00;7.30;;;14.20;98.60;;;;;;5078129;28;20552;-70
2022/05/05 06:26:37;;;;;;;10.98;7.90;;;14.30;98.40;;;;;;5077766;28;20418;-71
2022/05/05 06:29:03;;;;;;;8.60;7.40;;;14.40;98.10;;;;;;5077339;28;20191;-72
2022/05/05 06:31:28;;;;;;;14.07;8.57;;;14.40;98.00;;;;;;5071637;28;20201;-70
2022/05/05 06:33:54;;;;;;;8.33;6.73;;;14.50;97.70;;;;;;5085105;28;20174;-70
2022/05/05 06:36:20;;;;;;;9.03;6.97;;;14.60;97.40;;;;;;5074761;28;20200;-70
2022/05/05 06:38:45;;;;;;;13.27;7.17;;;14.70;97.10;;;;;;5077695;28;20201;-70
2022/05/05 06:41:12;;;;;;;12.77;7.17;;;14.80;96.70;;;;;;5073003;28;20999;-70
2022/05/05 06:43:37;;;;;;;10.50;7.83;;;14.80;96.50;;;;;;5085437;28;20612;-71
2022/05/05 06:46:03;;;;;;;12.03;7.40;;;14.90;96.40;;;;;;5072536;28;20435;-72
2022/05/05 06:48:29;;;;;;;13.30;7.70;;;14.90;96.30;;;;;;5080362;28;20357;-69
2022/05/05 06:50:55;;;;;;;10.57;7.10;;;15.00;96.20;;;;;;5079442;28;20418;-68
2022/05/05 06:53:20;;;;;;;10.87;7.30;;;15.00;96.30;;;;;;5073581;28;21045;-69
2022/05/05 06:55:47;;;;;;;13.43;8.40;;;15.00;96.30;;;;;;5084314;28;20196;-68
2022/05/05 06:58:13;;;;;;;12.07;7.07;;;15.00;96.10;;;;;;5074017;28;20266;-69
2022/05/05 07:03:22;;;;;;;10.73;7.90;;;15.10;95.80;;;;;;5083915;28;20550;-69
2022/05/05 07:05:48;;;;;;;8.57;6.80;;;15.10;95.70;;;;;;5069534;28;20416;-69
2022/05/05 07:08:13;;;;;;;8.73;7.40;;;15.10;95.80;;;;;;5082460;28;20181;-69
2022/05/05 07:10:54;;;;;;;16.80;8.50;;;15.20;95.40;;;;;;5076636;28;20177;-69
2022/05/05 07:13:23;;;;;;;12.90;7.57;;;15.20;95.10;;;;;;5073272;28;20565;-69
2022/05/05 07:15:50;;;;;;;10.57;7.13;;;15.10;95.00;;;;;;5083734;28;21119;-68
2022/05/05 07:18:16;;;;;;;16.03;7.57;;;15.20;95.20;;;;;;5081044;28;20604;-68
2022/05/05 07:20:42;;;;;;;12.07;7.80;;;15.30;95.10;;;;;;5078265;28;20450;-70
2022/05/05 07:23:12;;;;;;;13.00;8.52;;;15.40;95.00;;;;;;5079507;28;20412;-69
2022/05/05 07:25:39;;;;;;;11.23;7.87;;;15.50;94.40;;;;;;5071359;28;20173;-70
2022/05/05 07:28:05;;;;;;;18.53;8.27;;;15.50;94.40;;;;;;5087299;28;20418;-68
2022/05/05 07:30:31;;;;;;;12.40;7.43;;;15.60;93.80;;;;;;5079450;28;20415;-69
2022/05/05 07:32:56;;;;;;;7.17;6.20;;;15.70;93.90;;;;;;5083373;28;20437;-69
2022/05/05 07:35:22;;;;;;;15.07;6.90;;;15.90;93.20;;;;;;5076413;28;20307;-69
2022/05/05 07:37:48;;;;;;;11.33;6.70;;;16.00;92.30;;;;;;5073151;28;20203;-69
2022/05/05 07:40:13;;;;;;;12.97;6.30;;;16.20;91.40;;;;;;5084048;28;20288;-69
2022/05/05 07:42:41;;;;;;;9.37;6.60;;;16.20;90.90;;;;;;5080736;28;20596;-68
2022/05/05 07:45:07;;;;;;;13.90;7.50;;;16.40;90.80;;;;;;5078885;28;20170;-69
2022/05/05 07:47:33;;;;;;;14.83;7.23;;;16.50;90.60;;;;;;5087702;28;20441;-69
2022/05/05 07:50:00;;;;;;;8.97;5.80;;;16.60;90.20;;;;;;5074579;28;20415;-68
2022/05/05 07:52:26;;;;;;;10.73;6.67;;;16.80;90.10;;;;;;5083968;28;20954;-69
2022/05/05 07:54:52;;;;;;;15.13;6.90;;;16.90;90.30;;;;;;5081904;28;20411;-69
2022/05/05 07:57:20;;;;;;;14.40;9.00;;;16.90;90.10;;;;;;5076415;28;20199;-68
2022/05/05 07:59:46;;;;;;;14.13;8.03;;;16.90;89.50;;;;;;5087347;28;20399;-68
2022/05/05 08:02:15;;;;;;;15.07;9.40;;;16.80;89.50;;;;;;5074676;28;20413;-69
2022/05/05 08:04:42;;;;;;;14.47;8.27;;;16.80;89.70;;;;;;5084499;28;20844;-68
2022/05/05 08:07:08;;;;;;;12.23;8.40;;;16.90;89.60;;;;;;5083596;28;20451;-68
2022/05/05 08:09:33;;;;;;;12.57;6.47;;;17.00;89.10;;;;;;5089214;28;20407;-67
2022/05/05 08:12:02;;;;;;;12.50;8.30;;;17.10;89.30;;;;;;5088174;28;20706;-69
2022/05/05 08:14:28;;;;;;;12.20;8.70;;;17.00;87.70;;;;;;5088735;28;20172;-70
2022/05/05 08:16:55;;;;;;;14.43;8.97;;;17.00;88.00;;;;;;5087484;28;20453;-70
2022/05/05 08:19:21;;;;;;;10.83;8.20;;;16.90;87.60;;;;;;5073476;28;20591;-67
2022/05/05 08:21:47;;;;;;;16.20;9.20;;;16.60;88.60;;;;;;5081693;28;20510;-67
2022/05/05 08:29:42;;;;;;;11.60;7.77;;;16.70;89.40;;;;;;5076741;28;20422;-67
2022/05/05 08:32:08;;;;;;;15.07;9.10;;;16.70;89.00;;;;;;5079269;28;21282;-67
2022/05/05 08:34:33;;;;;;;11.20;8.70;;;16.80;89.30;;;;;;5075609;28;20201;-68
2022/05/05 08:36:59;;;;;;;10.70;7.90;;;17.00;88.90;;;;;;5081284;28;20454;-68
2022/05/05 08:39:25;;;;;;;12.30;8.37;;;17.20;88.00;;;;;;5083194;28;20914;-69
2022/05/05 08:41:53;;;;;;;11.53;8.20;;;17.40;87.10;;;;;;5067197;28;20213;-70
2022/05/05 08:44:19;;;;;;;12.77;8.20;;;17.40;86.50;;;;;;5083535;28;21160;-68
2022/05/05 08:46:50;;;;;;;11.90;8.47;;;17.40;86.00;;;;;;5078466;28;20463;-69
2022/05/05 08:49:20;;;;;;;12.40;8.60;;;17.30;85.90;;;;;;5083637;28;20950;-69
2022/05/05 08:51:48;;;;;;;12.13;8.80;;;17.40;86.50;;;;;;5073236;28;20466;-68
2022/05/05 08:54:16;;;;;;;12.50;8.77;;;17.40;86.50;;;;;;5084212;28;20447;-68
2022/05/05 08:56:48;;;;;;;11.37;8.00;;;17.60;85.90;;;;;;5082131;27;20486;-68
2022/05/05 08:59:15;;;;;;;11.63;8.10;;;17.90;85.60;;;;;;5077430;28;20520;-68
2022/05/05 09:01:41;;;;;;;11.03;8.63;;;18.10;84.90;;;;;;5078968;28;20454;-68
2022/05/05 09:04:08;;;;;;;12.10;8.50;;;17.90;84.10;;;;;;5077316;28;20434;-68
2022/05/05 09:06:48;;;;;;;16.90;9.73;;;17.70;84.70;;;;;;5080258;28;20451;-67
2022/05/05 09:09:36;;;;;;;15.53;9.53;;;17.60;85.20;;;;;;5072528;28;20427;-69
2022/05/05 09:12:18;;;;;;;11.30;8.97;;;17.60;84.80;;;;;;5073435;28;20513;-68
2022/05/05 09:14:48;;;;;;;12.13;10.00;;;17.60;85.20;;;;;;5079609;28;20510;-66
2022/05/05 09:17:22;;;;;;;12.80;9.93;;;17.60;84.70;;;;;;5083797;28;20498;-68
2022/05/05 09:19:52;;;;;;;16.60;11.20;;;17.60;84.50;;;;;;5070981;28;20524;-67
2022/05/05 09:22:20;;;;;;;14.10;10.20;;;17.70;83.40;;;;;;5085283;28;20503;-68
2022/05/05 09:24:50;;;;;;;12.20;9.03;;;17.90;83.80;;;;;;5089634;28;20487;-69
2022/05/05 09:27:34;;;;;;;19.40;11.00;;;18.20;83.50;;;;;;5075651;28;20550;-68
2022/05/05 09:30:09;;;;;;;13.00;10.53;;;18.40;82.80;;;;;;5072793;28;20410;-68
2022/05/05 09:32:43;;;;;;;13.50;10.40;;;18.50;82.00;;;;;;5081073;28;20411;-68
2022/05/05 09:35:18;;;;;;;13.63;10.03;;;18.40;82.80;;;;;;5082651;28;20438;-68
2022/05/05 09:37:47;;;;;;;13.27;9.10;;;18.50;83.00;;;;;;5072255;28;20486;-68
2022/05/05 09:40:17;;;;;;;16.13;10.80;;;18.80;82.70;;;;;;5083450;28;20422;-67
2022/05/05 09:42:49;;;;;;;13.17;10.50;;;18.90;81.70;;;;;;5077464;28;20461;-69
2022/05/05 09:45:21;;;;;;;13.90;11.03;;;19.10;81.60;;;;;;5074503;28;21143;-69
2022/05/05 09:48:01;;;;;;;11.33;9.97;;;19.00;80.20;;;;;;5084341;28;20485;-69
2022/05/05 09:50:32;;;;;;;13.97;11.50;;;19.00;80.60;;;;;;5074206;28;20403;-69
2022/05/05 09:58:36;;;;;;;15.40;11.47;;;18.80;81.20;;;;;;5046015;28;20877;-70
2022/05/05 10:01:09;;;;;;;15.90;10.50;;;18.60;81.70;;;;;;5049889;28;20420;-72
2022/05/05 10:04:05;;;;;;;14.50;11.80;;;18.50;82.00;;;;;;5050306;28;20515;-71
2022/05/05 10:06:37;;;;;;;14.80;10.87;;;18.40;82.40;;;;;;5050102;28;20444;-72
2022/05/05 10:09:07;;;;;;;12.93;10.30;;;18.10;82.60;;;;;;5051545;28;20504;-72
2022/05/05 10:11:33;;;;;;;11.70;9.50;;;18.00;83.50;;;;;;5052720;28;20929;-72
2022/05/05 10:14:00;;;;;;;13.23;10.73;;;18.00;83.80;;;;;;5052279;28;20454;-72
2022/05/05 10:16:30;;;;;;;16.03;11.67;;;18.10;84.10;;;;;;5052265;28;20766;-72
2022/05/05 10:18:56;;;;;;;15.27;10.77;;;18.10;83.80;;;;;;5052344;28;20445;-72
2022/05/05 10:21:40;;;;;;;15.80;10.60;;;18.10;83.90;;;;;;5052321;28;20491;-72
2022/05/05 10:24:30;;;;;;;17.97;12.00;;;18.00;83.50;;;;;;5052848;28;20456;-72
2022/05/05 10:27:03;;;;;;;17.20;11.80;;;18.10;83.90;;;;;;5056663;28;20813;-72
2022/05/05 10:29:32;;;;;;;18.77;11.73;;;17.90;83.20;;;;;;5058552;28;20482;-71
2022/05/05 10:32:24;;;;;;;15.67;11.63;;;17.70;84.00;;;;;;5057440;28;20512;-72
2022/05/05 10:34:53;;;;;;;14.27;11.33;;;17.70;84.00;;;;;;5054721;28;20408;-72
2022/05/05 10:37:22;;;;;;;14.40;10.77;;;17.60;84.10;;;;;;5052412;28;20448;-72
2022/05/05 10:39:53;;;;;;;15.43;11.73;;;17.60;84.60;;;;;;5052302;28;20405;-73
2022/05/05 10:42:34;;;;;;;16.27;10.67;;;17.60;84.50;;;;;;5052536;28;20432;-72
2022/05/05 10:45:10;;;;;;;14.70;11.57;;;17.70;84.50;;;;;;5052586;28;20405;-71
2022/05/05 10:48:06;;;;;;;15.40;13.73;;;17.80;84.70;;;;;;5052913;28;20432;-72
2022/05/05 10:50:53;;;;;;;20.70;12.80;;;17.80;85.00;;;;;;5051890;28;20423;-71
2022/05/05 10:53:37;;;;;;;16.33;11.97;;;17.90;85.30;;;;;;5051622;28;20982;-72
2022/05/05 10:56:06;;;;;;;13.70;10.87;;;17.80;85.20;;;;;;5059245;28;20393;-71
2022/05/05 10:58:59;;;;;;;17.93;11.23;;;17.60;85.50;;;;;;5058231;28;20453;-72
2022/05/05 11:01:26;;;;;;;14.00;11.67;;;17.70;85.80;;;;;;5056477;28;20896;-72
2022/05/05 11:04:17;;;;;;;16.67;11.20;;;17.80;84.80;;;;;;5059631;28;21054;-72
2022/05/05 11:06:44;;;;;;;15.30;11.57;;;17.90;85.10;;;;;;5054056;28;20496;-72
2022/05/05 11:09:27;;;;;;;21.07;10.27;;;18.10;84.90;;;;;;5053636;28;20404;-71
2022/05/05 11:12:12;;;;;;;12.70;10.70;;;18.00;83.70;;;;;;5056455;28;20962;-72
2022/05/05 11:23:09;;;;;;;11.60;9.50;;;19.20;82.10;;;;;;5057642;28;20473;-72
2022/05/05 11:25:41;;;;;;;13.23;11.67;;;19.30;81.70;;;;;;5056116;28;20485;-71
2022/05/05 11:28:08;;;;;;;13.53;11.20;;;19.10;79.80;;;;;;5060576;28;20408;-72
2022/05/05 11:30:35;;;;;;;13.25;10.82;;;18.60;80.80;;;;;;5054983;28;20430;-72
2022/05/05 11:33:01;;;;;;;11.97;9.40;;;18.60;81.00;;;;;;5062054;28;20603;-73
2022/05/05 11:35:26;;;;;;;11.17;8.77;;;18.60;81.10;;;;;;5058252;28;20408;-73
2022/05/05 11:37:52;;;;;;;12.93;9.47;;;18.50;80.20;;;;;;5057319;28;20243;-72
2022/05/05 11:40:17;;;;;;;13.87;9.40;;;18.30;80.60;;;;;;5058798;28;20194;-72
2022/05/05 11:45:28;;;;;;;10.73;9.50;;;18.40;80.00;;;;;;5065346;28;20189;-74
2022/05/05 11:47:54;;;;;;;9.30;8.30;;;18.20;80.30;;;;;;5055899;28;20499;-72
2022/05/05 11:50:20;;;;;;;15.33;8.47;;;18.40;80.70;;;;;;5054761;28;20170;-72
2022/05/05 11:52:46;;;;;;;12.50;11.00;;;18.60;80.80;;;;;;5052160;28;20464;-72
2022/05/05 11:55:13;;;;;;;10.57;9.50;;;18.70;81.10;;;;;;5053171;28;20178;-72
2022/05/05 11:57:40;;;;;;;10.67;9.60;;;18.70;80.20;;;;;;5052882;28;20542;-73
2022/05/05 12:02:55;;;;;;;10.13;7.97;;;18.80;78.80;;;;;;5053362;28;20452;-73
2022/05/05 12:05:23;;;;;;;11.00;9.23;;;19.00;78.80;;;;;;5052883;28;20405;-71
2022/05/05 12:07:50;;;;;;;10.90;9.23;;;19.20;78.10;;;;;;5054774;28;20405;-70
2022/05/05 12:10:17;;;;;;;12.73;10.27;;;19.00;77.10;;;;;;5057271;28;20554;-72
2022/05/05 12:12:44;;;;;;;10.90;9.63;;;18.90;78.00;;;;;;5061897;28;20439;-71
2022/05/05 12:15:12;;;;;;;9.20;8.27;;;19.10;77.70;;;;;;5041083;28;20424;-72
2022/05/05 12:17:46;;;;;;;8.00;6.70;;;19.20;76.10;;;;;;5061286;28;20464;-72
2022/05/05 12:20:14;;;;;;;9.67;8.70;;;19.00;73.50;;;;;;5063605;28;20413;-71
2022/05/05 12:22:42;;;;;;;11.57;9.50;;;19.10;75.00;;;;;;5063979;28;20797;-72
2022/05/05 12:25:16;;;;;;;13.00;10.03;;;19.10;77.70;;;;;;5063103;28;20547;-73
2022/05/05 12:27:42;;;;;;;10.60;9.50;;;19.20;78.20;;;;;;5063111;28;20412;-72
2022/05/05 12:30:09;;;;;;;11.23;10.10;;;19.00;78.50;;;;;;5058980;28;20441;-72
2022/05/05 12:32:35;;;;;;;9.50;7.90;;;18.90;77.40;;;;;;5060598;28;21000;-72
2022/05/05 12:35:11;;;;;;;12.37;9.80;;;19.10;77.40;;;;;;5058237;28;20550;-72
2022/05/05 12:37:37;;;;;;;10.37;8.63;;;19.20;77.10;;;;;;5060993;28;20244;-72
2022/05/05 12:40:06;;;;;;;11.27;10.17;;;19.40;77.20;;;;;;5060050;28;20428;-72
2022/05/05 12:42:45;;;;;;;12.60;9.83;;;19.60;76.70;;;;;;5059290;28;20429;-72
2022/05/05 12:45:27;;;;;;;11.40;9.97;;;19.60;76.70;;;;;;5059672;28;20416;-72
2022/05/05 12:47:54;;;;;;;11.80;10.60;;;19.70;76.80;;;;;;5060502;28;20496;-72
2022/05/05 12:50:26;;;;;;;11.73;10.50;;;19.60;76.70;;;;;;5058239;28;20421;-73
2022/05/05 13:01:05;;;;;;;11.37;9.07;;;19.20;77.50;;;;;;5059111;28;20416;-72
2022/05/05 13:03:30;;;;;;;11.03;9.93;;;19.40;78.00;;;;;;5058918;28;20429;-72
2022/05/05 13:05:57;;;;;;;14.43;10.80;;;19.60;77.90;;;;;;5059489;28;20174;-71
2022/05/05 13:08:23;;;;;;;15.10;11.37;;;19.60;76.50;;;;;;5057226;28;20167;-72
2022/05/05 13:10:48;;;;;;;12.63;10.33;;;19.60;77.10;;;;;;5053790;28;20478;-72
2022/05/05 13:13:14;;;;;;;13.20;11.50;;;19.70;77.00;;;;;;5053460;28;20496;-72
2022/05/05 13:15:42;;;;;;;10.87;9.77;;;19.70;78.10;;;;;;5053314;28;20166;-72
2022/05/05 13:18:08;;;;;;;12.57;11.30;;;19.80;77.40;;;;;;5054020;28;20454;-72
2022/05/05 13:20:33;;;;;;;14.97;12.30;;;19.70;77.40;;;;;;5053815;28;20504;-73
2022/05/05 13:23:00;;;;;;;15.93;11.87;;;19.50;77.60;;;;;;5052689;28;20206;-72
2022/05/05 13:25:26;;;;;;;11.17;10.17;;;19.50;78.00;;;;;;5052819;28;20174;-73
2022/05/05 13:27:52;;;;;;;13.00;11.40;;;19.60;77.30;;;;;;5053166;28;20409;-73
2022/05/05 13:30:19;;;;;;;12.67;10.50;;;19.70;77.50;;;;;;5052833;28;20408;-73
2022/05/05 13:32:44;;;;;;;11.77;10.57;;;19.60;78.20;;;;;;5053215;28;20433;-75